Airfield :







YOU CAN JOIN US ON...

 
LOGIN :

Register | Disclaimer

   EN    FR    IT 

 









Legend :    VFR   Marginal VFR   IFR   Intensive IFR   Very Intensive IFR
Visi :
Ceiling :
>= 8 km
>= 3000ft
5 to 8 km
1000 to 3000 ft
1500m to 5 km
500 to 1000 ft
800 to 1500m
200 to 500 ft
< 800m
< 200 ft
Symbols :   Thunderstorms  Fog  Heavy snow  Heavy precipitations  Wind > 20 kt






- Airport Elevation : 232 ft
- IATA code : YQM


CYQM - Greater Moncton International

CURRENT METAR :
  • 291000Z 29006KT 15SM BKN007 OVC012 M06/M07 A2973 RMK SF5SC3 SLP075

EXPIRED METARs :
  • 290900Z 32006KT 15SM OVC006 M06/M06 A2973 RMK SF8 SLP075
  • 290857Z 32006KT 15SM OVC006 M06/M07 A2973 RMK SF8 SLP075
  • 290800Z 33007KT 12SM -SN OVC005 M06/M07 A2974 RMK SF8 SLP078

TAF TAF CYQM
Valid from the 29 at 06:00 until the 30 at 06:00 UTC


290538Z 2906/3006 34010KT P6SM -SN BKN008
TEMPO 2906/2912 P6SM NSW BKN025
FM291200 30008KT P6SM FEW020
TEMPO 2912/2914 BKN020
BECMG 2912/2914 33012KT
FM291600 34012KT P6SM SCT040
FM292000 34012KT P6SM -SHSN BKN025
BECMG 2920/2922 34012G22KT
FM300000 35012KT P6SM SCT030 RMK NXT FCST BY 291200Z



MET'MAP, your aeronautical weather chart ! - Copyright ORBIFLY December 2007 - Disclaimer

ORBIFLY MET'MAP TEAM :

Programming & Development : Alexandra Zaïnal
Concept & original design : Baudouin d'Aumeries
Assistance for programming : Marc-Olivier Méhu
Technical & hardware support : Manuel Goepfert

Contact : metmap@orbifly.com




SOURCES & CREDITS :

   NOAA